sensor_id;sensor_type;location;lat;lon;timestamp;P1;durP1;ratioP1;P2;durP2;ratioP2
17586;SDS011;8912;52.336;17.172;2022-08-19T00:01:40;15.02;;;13.45;;
17586;SDS011;8912;52.336;17.172;2022-08-19T00:04:20;14.90;;;13.40;;
17586;SDS011;8912;52.336;17.172;2022-08-19T00:06:50;15.73;;;13.32;;
17586;SDS011;8912;52.336;17.172;2022-08-19T00:09:20;17.08;;;13.75;;
17586;SDS011;8912;52.336;17.172;2022-08-19T00:11:51;16.63;;;14.35;;
17586;SDS011;8912;52.336;17.172;2022-08-19T00:14:22;15.23;;;13.73;;
17586;SDS011;8912;52.336;17.172;2022-08-19T00:16:53;14.25;;;12.85;;
17586;SDS011;8912;52.336;17.172;2022-08-19T00:19:22;14.18;;;12.77;;
17586;SDS011;8912;52.336;17.172;2022-08-19T00:21:52;16.70;;;13.88;;
17586;SDS011;8912;52.336;17.172;2022-08-19T00:24:21;14.50;;;13.20;;
17586;SDS011;8912;52.336;17.172;2022-08-19T00:26:51;15.02;;;13.50;;
17586;SDS011;8912;52.336;17.172;2022-08-19T00:29:20;15.93;;;14.15;;
17586;SDS011;8912;52.336;17.172;2022-08-19T00:31:50;15.57;;;14.00;;
17586;SDS011;8912;52.336;17.172;2022-08-19T00:34:22;18.02;;;13.38;;
17586;SDS011;8912;52.336;17.172;2022-08-19T00:36:54;13.82;;;12.43;;
17586;SDS011;8912;52.336;17.172;2022-08-19T00:39:24;18.23;;;14.02;;
17586;SDS011;8912;52.336;17.172;2022-08-19T00:41:53;14.10;;;12.45;;
17586;SDS011;8912;52.336;17.172;2022-08-19T00:44:22;14.63;;;12.63;;
17586;SDS011;8912;52.336;17.172;2022-08-19T00:46:53;16.50;;;12.25;;
17586;SDS011;8912;52.336;17.172;2022-08-19T00:49:27;14.32;;;12.95;;
17586;SDS011;8912;52.336;17.172;2022-08-19T00:52:01;13.25;;;11.82;;
17586;SDS011;8912;52.336;17.172;2022-08-19T00:54:32;14.50;;;11.32;;
17586;SDS011;8912;52.336;17.172;2022-08-19T00:57:04;16.77;;;12.18;;
17586;SDS011;8912;52.336;17.172;2022-08-19T00:59:36;13.10;;;11.68;;
17586;SDS011;8912;52.336;17.172;2022-08-19T01:02:27;12.38;;;11.18;;
17586;SDS011;8912;52.336;17.172;2022-08-19T01:05:00;12.73;;;11.50;;
17586;SDS011;8912;52.336;17.172;2022-08-19T01:07:32;13.95;;;11.13;;
17586;SDS011;8912;52.336;17.172;2022-08-19T01:10:05;12.05;;;10.60;;
17586;SDS011;8912;52.336;17.172;2022-08-19T01:12:36;11.90;;;10.80;;
17586;SDS011;8912;52.336;17.172;2022-08-19T01:15:06;12.38;;;11.05;;
17586;SDS011;8912;52.336;17.172;2022-08-19T01:17:38;12.45;;;10.27;;
17586;SDS011;8912;52.336;17.172;2022-08-19T01:20:10;11.63;;;10.40;;
17586;SDS011;8912;52.336;17.172;2022-08-19T01:22:44;12.40;;;11.10;;
17586;SDS011;8912;52.336;17.172;2022-08-19T01:25:15;11.75;;;10.65;;
17586;SDS011;8912;52.336;17.172;2022-08-19T01:27:50;12.10;;;10.80;;
17586;SDS011;8912;52.336;17.172;2022-08-19T01:30:21;11.68;;;10.00;;
17586;SDS011;8912;52.336;17.172;2022-08-19T01:32:52;15.02;;;10.45;;
17586;SDS011;8912;52.336;17.172;2022-08-19T01:35:22;11.73;;;10.57;;
17586;SDS011;8912;52.336;17.172;2022-08-19T01:37:54;12.25;;;10.88;;
17586;SDS011;8912;52.336;17.172;2022-08-19T01:40:27;12.27;;;11.07;;
17586;SDS011;8912;52.336;17.172;2022-08-19T01:42:58;12.30;;;10.25;;
17586;SDS011;8912;52.336;17.172;2022-08-19T01:45:28;13.05;;;10.98;;
17586;SDS011;8912;52.336;17.172;2022-08-19T01:47:58;11.27;;;10.18;;
17586;SDS011;8912;52.336;17.172;2022-08-19T01:50:28;12.13;;;10.98;;
17586;SDS011;8912;52.336;17.172;2022-08-19T01:52:59;11.73;;;10.50;;
17586;SDS011;8912;52.336;17.172;2022-08-19T01:55:33;11.48;;;10.25;;
17586;SDS011;8912;52.336;17.172;2022-08-19T01:58:08;11.52;;;10.38;;
17586;SDS011;8912;52.336;17.172;2022-08-19T02:00:41;11.93;;;10.75;;
17586;SDS011;8912;52.336;17.172;2022-08-19T02:03:12;11.20;;;10.20;;
17586;SDS011;8912;52.336;17.172;2022-08-19T02:05:41;11.32;;;10.32;;
17586;SDS011;8912;52.336;17.172;2022-08-19T02:08:12;12.02;;;10.85;;
17586;SDS011;8912;52.336;17.172;2022-08-19T02:10:41;12.63;;;11.45;;
17586;SDS011;8912;52.336;17.172;2022-08-19T02:13:11;17.00;;;11.90;;
17586;SDS011;8912;52.336;17.172;2022-08-19T02:15:41;12.40;;;11.20;;
17586;SDS011;8912;52.336;17.172;2022-08-19T02:18:10;13.23;;;11.60;;
17586;SDS011;8912;52.336;17.172;2022-08-19T02:20:39;12.38;;;11.27;;
17586;SDS011;8912;52.336;17.172;2022-08-19T02:23:10;12.82;;;11.50;;
17586;SDS011;8912;52.336;17.172;2022-08-19T02:25:42;13.93;;;11.88;;
17586;SDS011;8912;52.336;17.172;2022-08-19T02:28:11;11.85;;;10.75;;
17586;SDS011;8912;52.336;17.172;2022-08-19T02:30:45;12.40;;;11.18;;
17586;SDS011;8912;52.336;17.172;2022-08-19T02:33:14;12.23;;;11.00;;
17586;SDS011;8912;52.336;17.172;2022-08-19T02:35:44;12.55;;;11.25;;
17586;SDS011;8912;52.336;17.172;2022-08-19T02:38:15;14.55;;;11.00;;
17586;SDS011;8912;52.336;17.172;2022-08-19T02:40:56;16.00;;;11.23;;
17586;SDS011;8912;52.336;17.172;2022-08-19T02:43:27;12.73;;;11.52;;
17586;SDS011;8912;52.336;17.172;2022-08-19T02:46:00;11.75;;;10.75;;
17586;SDS011;8912;52.336;17.172;2022-08-19T02:48:30;14.77;;;11.40;;
17586;SDS011;8912;52.336;17.172;2022-08-19T02:50:59;11.23;;;10.23;;
17586;SDS011;8912;52.336;17.172;2022-08-19T02:53:29;11.80;;;10.70;;
17586;SDS011;8912;52.336;17.172;2022-08-19T02:55:58;12.90;;;11.60;;
17586;SDS011;8912;52.336;17.172;2022-08-19T02:58:27;13.40;;;10.38;;
17586;SDS011;8912;52.336;17.172;2022-08-19T03:00:56;11.15;;;10.10;;
17586;SDS011;8912;52.336;17.172;2022-08-19T03:03:25;12.50;;;11.27;;
17586;SDS011;8912;52.336;17.172;2022-08-19T03:06:04;12.05;;;10.85;;
17586;SDS011;8912;52.336;17.172;2022-08-19T03:08:37;11.25;;;10.15;;
17586;SDS011;8912;52.336;17.172;2022-08-19T03:11:06;12.55;;;11.43;;
17586;SDS011;8912;52.336;17.172;2022-08-19T03:13:41;14.85;;;11.43;;
17586;SDS011;8912;52.336;17.172;2022-08-19T03:16:11;12.23;;;10.68;;
17586;SDS011;8912;52.336;17.172;2022-08-19T03:18:40;14.23;;;11.73;;
17586;SDS011;8912;52.336;17.172;2022-08-19T03:21:09;12.60;;;11.30;;
17586;SDS011;8912;52.336;17.172;2022-08-19T03:23:45;12.18;;;10.98;;
17586;SDS011;8912;52.336;17.172;2022-08-19T03:26:14;13.35;;;11.95;;
17586;SDS011;8912;52.336;17.172;2022-08-19T03:28:44;12.10;;;10.85;;
17586;SDS011;8912;52.336;17.172;2022-08-19T03:31:25;14.43;;;11.75;;
17586;SDS011;8912;52.336;17.172;2022-08-19T03:34:16;13.32;;;12.02;;
17586;SDS011;8912;52.336;17.172;2022-08-19T03:36:47;14.48;;;11.70;;
17586;SDS011;8912;52.336;17.172;2022-08-19T03:39:17;13.13;;;11.80;;
17586;SDS011;8912;52.336;17.172;2022-08-19T03:41:47;12.82;;;11.60;;
17586;SDS011;8912;52.336;17.172;2022-08-19T03:44:39;13.38;;;12.07;;
17586;SDS011;8912;52.336;17.172;2022-08-19T03:47:09;12.68;;;11.57;;
17586;SDS011;8912;52.336;17.172;2022-08-19T03:49:43;13.35;;;12.05;;
17586;SDS011;8912;52.336;17.172;2022-08-19T03:52:13;13.70;;;12.40;;
17586;SDS011;8912;52.336;17.172;2022-08-19T03:54:43;14.50;;;12.93;;
17586;SDS011;8912;52.336;17.172;2022-08-19T03:57:12;13.02;;;11.52;;
17586;SDS011;8912;52.336;17.172;2022-08-19T03:59:40;12.75;;;11.48;;
17586;SDS011;8912;52.336;17.172;2022-08-19T04:02:10;12.77;;;11.48;;
17586;SDS011;8912;52.336;17.172;2022-08-19T04:04:40;17.15;;;12.10;;
17586;SDS011;8912;52.336;17.172;2022-08-19T04:07:11;13.90;;;12.50;;
17586;SDS011;8912;52.336;17.172;2022-08-19T04:09:44;13.48;;;12.18;;
17586;SDS011;8912;52.336;17.172;2022-08-19T04:12:13;13.60;;;12.20;;
17586;SDS011;8912;52.336;17.172;2022-08-19T04:14:42;13.38;;;12.23;;
17586;SDS011;8912;52.336;17.172;2022-08-19T04:17:11;13.70;;;12.25;;
17586;SDS011;8912;52.336;17.172;2022-08-19T04:19:40;14.13;;;12.35;;
17586;SDS011;8912;52.336;17.172;2022-08-19T04:22:09;14.18;;;12.43;;
17586;SDS011;8912;52.336;17.172;2022-08-19T04:24:39;14.55;;;11.68;;
17586;SDS011;8912;52.336;17.172;2022-08-19T04:27:09;13.50;;;12.27;;
17586;SDS011;8912;52.336;17.172;2022-08-19T04:29:37;13.07;;;11.82;;
17586;SDS011;8912;52.336;17.172;2022-08-19T04:32:07;14.23;;;12.00;;
17586;SDS011;8912;52.336;17.172;2022-08-19T04:34:36;17.00;;;12.00;;
17586;SDS011;8912;52.336;17.172;2022-08-19T04:37:25;15.30;;;11.98;;
17586;SDS011;8912;52.336;17.172;2022-08-19T04:40:01;12.32;;;11.02;;
17586;SDS011;8912;52.336;17.172;2022-08-19T04:42:51;15.93;;;12.13;;
17586;SDS011;8912;52.336;17.172;2022-08-19T04:45:21;13.68;;;11.43;;
17586;SDS011;8912;52.336;17.172;2022-08-19T04:47:54;12.70;;;11.50;;
17586;SDS011;8912;52.336;17.172;2022-08-19T04:50:44;12.40;;;11.15;;
17586;SDS011;8912;52.336;17.172;2022-08-19T04:53:12;15.10;;;11.65;;
17586;SDS011;8912;52.336;17.172;2022-08-19T04:55:42;12.65;;;11.35;;
17586;SDS011;8912;52.336;17.172;2022-08-19T04:58:12;14.13;;;10.88;;
17586;SDS011;8912;52.336;17.172;2022-08-19T05:00:41;11.98;;;10.68;;
17586;SDS011;8912;52.336;17.172;2022-08-19T05:03:10;11.55;;;10.27;;
17586;SDS011;8912;52.336;17.172;2022-08-19T05:05:40;12.65;;;10.60;;
17586;SDS011;8912;52.336;17.172;2022-08-19T05:08:11;13.38;;;10.27;;
17586;SDS011;8912;52.336;17.172;2022-08-19T05:10:57;13.68;;;10.27;;
17586;SDS011;8912;52.336;17.172;2022-08-19T05:13:27;11.85;;;10.80;;
17586;SDS011;8912;52.336;17.172;2022-08-19T05:15:56;11.88;;;10.63;;
17586;SDS011;8912;52.336;17.172;2022-08-19T05:18:26;11.98;;;10.65;;
17586;SDS011;8912;52.336;17.172;2022-08-19T05:21:13;11.07;;;9.85;;
17586;SDS011;8912;52.336;17.172;2022-08-19T05:24:01;16.85;;;10.45;;
17586;SDS011;8912;52.336;17.172;2022-08-19T05:26:30;10.88;;;9.88;;
17586;SDS011;8912;52.336;17.172;2022-08-19T05:29:01;12.82;;;10.15;;
17586;SDS011;8912;52.336;17.172;2022-08-19T05:31:30;11.90;;;9.50;;
17586;SDS011;8912;52.336;17.172;2022-08-19T05:33:59;17.27;;;11.05;;
17586;SDS011;8912;52.336;17.172;2022-08-19T05:36:34;16.17;;;10.85;;
17586;SDS011;8912;52.336;17.172;2022-08-19T05:39:05;11.55;;;10.25;;
17586;SDS011;8912;52.336;17.172;2022-08-19T05:41:35;11.63;;;10.48;;
17586;SDS011;8912;52.336;17.172;2022-08-19T05:44:05;12.85;;;9.77;;
17586;SDS011;8912;52.336;17.172;2022-08-19T05:46:36;13.73;;;10.20;;
17586;SDS011;8912;52.336;17.172;2022-08-19T05:49:06;11.27;;;10.18;;
17586;SDS011;8912;52.336;17.172;2022-08-19T05:51:35;12.68;;;11.40;;
17586;SDS011;8912;52.336;17.172;2022-08-19T05:54:05;18.67;;;9.25;;
17586;SDS011;8912;52.336;17.172;2022-08-19T05:56:35;13.90;;;11.40;;
17586;SDS011;8912;52.336;17.172;2022-08-19T05:59:07;16.52;;;10.98;;
17586;SDS011;8912;52.336;17.172;2022-08-19T06:01:38;22.55;;;12.02;;
17586;SDS011;8912;52.336;17.172;2022-08-19T06:04:07;11.30;;;10.00;;
17586;SDS011;8912;52.336;17.172;2022-08-19T06:06:36;11.30;;;10.13;;
17586;SDS011;8912;52.336;17.172;2022-08-19T06:09:06;12.10;;;10.80;;
17586;SDS011;8912;52.336;17.172;2022-08-19T06:11:38;13.63;;;9.93;;
17586;SDS011;8912;52.336;17.172;2022-08-19T06:14:11;11.55;;;10.13;;
17586;SDS011;8912;52.336;17.172;2022-08-19T06:16:43;14.38;;;10.15;;
17586;SDS011;8912;52.336;17.172;2022-08-19T06:19:13;12.77;;;10.25;;
17586;SDS011;8912;52.336;17.172;2022-08-19T06:21:44;12.98;;;10.50;;
17586;SDS011;8912;52.336;17.172;2022-08-19T06:24:16;14.55;;;9.55;;
17586;SDS011;8912;52.336;17.172;2022-08-19T06:26:47;12.48;;;10.18;;
17586;SDS011;8912;52.336;17.172;2022-08-19T06:29:20;14.48;;;9.88;;
17586;SDS011;8912;52.336;17.172;2022-08-19T06:31:52;10.00;;;9.20;;
17586;SDS011;8912;52.336;17.172;2022-08-19T06:34:25;15.05;;;9.57;;
17586;SDS011;8912;52.336;17.172;2022-08-19T06:36:55;14.80;;;9.82;;
17586;SDS011;8912;52.336;17.172;2022-08-19T06:39:29;10.57;;;9.45;;
17586;SDS011;8912;52.336;17.172;2022-08-19T06:42:01;11.93;;;9.88;;
17586;SDS011;8912;52.336;17.172;2022-08-19T06:44:37;11.73;;;10.05;;
17586;SDS011;8912;52.336;17.172;2022-08-19T06:47:15;11.93;;;10.15;;
17586;SDS011;8912;52.336;17.172;2022-08-19T06:49:54;16.67;;;10.07;;
17586;SDS011;8912;52.336;17.172;2022-08-19T06:52:31;11.07;;;9.85;;
17586;SDS011;8912;52.336;17.172;2022-08-19T06:55:04;11.13;;;9.00;;
17586;SDS011;8912;52.336;17.172;2022-08-19T06:57:34;11.63;;;9.80;;
17586;SDS011;8912;52.336;17.172;2022-08-19T07:00:05;12.55;;;9.73;;
17586;SDS011;8912;52.336;17.172;2022-08-19T07:02:39;12.65;;;9.57;;
17586;SDS011;8912;52.336;17.172;2022-08-19T07:05:21;11.52;;;9.82;;
17586;SDS011;8912;52.336;17.172;2022-08-19T07:07:50;11.27;;;10.18;;
17586;SDS011;8912;52.336;17.172;2022-08-19T07:10:23;10.98;;;9.90;;
17586;SDS011;8912;52.336;17.172;2022-08-19T07:12:52;12.55;;;10.07;;
17586;SDS011;8912;52.336;17.172;2022-08-19T07:15:22;11.00;;;9.90;;
17586;SDS011;8912;52.336;17.172;2022-08-19T07:17:51;17.55;;;10.55;;
17586;SDS011;8912;52.336;17.172;2022-08-19T07:20:21;13.40;;;9.80;;
17586;SDS011;8912;52.336;17.172;2022-08-19T07:22:54;17.52;;;9.55;;
17586;SDS011;8912;52.336;17.172;2022-08-19T07:25:23;12.00;;;10.00;;
17586;SDS011;8912;52.336;17.172;2022-08-19T07:27:59;12.57;;;10.57;;
17586;SDS011;8912;52.336;17.172;2022-08-19T07:30:30;11.68;;;10.02;;
17586;SDS011;8912;52.336;17.172;2022-08-19T07:33:00;12.50;;;10.15;;
17586;SDS011;8912;52.336;17.172;2022-08-19T07:35:29;10.98;;;9.85;;
17586;SDS011;8912;52.336;17.172;2022-08-19T07:37:59;12.18;;;9.93;;
17586;SDS011;8912;52.336;17.172;2022-08-19T07:40:30;12.05;;;10.40;;
17586;SDS011;8912;52.336;17.172;2022-08-19T07:42:59;12.10;;;10.02;;
17586;SDS011;8912;52.336;17.172;2022-08-19T07:45:29;10.80;;;9.80;;
17586;SDS011;8912;52.336;17.172;2022-08-19T07:47:59;12.80;;;10.20;;
17586;SDS011;8912;52.336;17.172;2022-08-19T07:50:28;13.32;;;10.60;;
17586;SDS011;8912;52.336;17.172;2022-08-19T07:52:57;10.50;;;9.68;;
17586;SDS011;8912;52.336;17.172;2022-08-19T07:55:26;11.20;;;10.02;;
17586;SDS011;8912;52.336;17.172;2022-08-19T07:58:10;12.65;;;10.15;;
17586;SDS011;8912;52.336;17.172;2022-08-19T08:00:42;10.75;;;9.52;;
17586;SDS011;8912;52.336;17.172;2022-08-19T08:03:11;12.00;;;9.65;;
17586;SDS011;8912;52.336;17.172;2022-08-19T08:05:41;11.23;;;10.25;;
17586;SDS011;8912;52.336;17.172;2022-08-19T08:08:27;11.45;;;9.52;;
17586;SDS011;8912;52.336;17.172;2022-08-19T08:11:14;14.90;;;10.68;;
17586;SDS011;8912;52.336;17.172;2022-08-19T08:13:47;11.95;;;10.75;;
17586;SDS011;8912;52.336;17.172;2022-08-19T08:16:32;15.10;;;10.48;;
17586;SDS011;8912;52.336;17.172;2022-08-19T08:19:13;13.45;;;10.65;;
17586;SDS011;8912;52.336;17.172;2022-08-19T08:21:51;13.55;;;9.95;;
17586;SDS011;8912;52.336;17.172;2022-08-19T08:24:21;11.13;;;10.10;;
17586;SDS011;8912;52.336;17.172;2022-08-19T08:26:54;11.70;;;10.38;;
17586;SDS011;8912;52.336;17.172;2022-08-19T08:29:25;11.60;;;10.43;;
17586;SDS011;8912;52.336;17.172;2022-08-19T08:32:02;11.93;;;10.45;;
17586;SDS011;8912;52.336;17.172;2022-08-19T08:34:40;13.07;;;10.57;;
17586;SDS011;8912;52.336;17.172;2022-08-19T08:37:10;15.77;;;10.88;;
17586;SDS011;8912;52.336;17.172;2022-08-19T08:39:42;18.20;;;10.80;;
17586;SDS011;8912;52.336;17.172;2022-08-19T08:42:12;14.68;;;10.40;;
17586;SDS011;8912;52.336;17.172;2022-08-19T08:44:49;11.20;;;10.10;;
17586;SDS011;8912;52.336;17.172;2022-08-19T08:47:32;12.57;;;9.95;;
17586;SDS011;8912;52.336;17.172;2022-08-19T08:50:19;15.40;;;10.00;;
17586;SDS011;8912;52.336;17.172;2022-08-19T08:52:54;18.58;;;10.63;;
17586;SDS011;8912;52.336;17.172;2022-08-19T08:55:26;18.08;;;10.07;;
17586;SDS011;8912;52.336;17.172;2022-08-19T08:58:04;11.00;;;9.88;;
17586;SDS011;8912;52.336;17.172;2022-08-19T09:00:43;20.52;;;10.90;;
17586;SDS011;8912;52.336;17.172;2022-08-19T09:03:17;12.88;;;9.95;;
17586;SDS011;8912;52.336;17.172;2022-08-19T09:05:54;23.13;;;10.68;;
17586;SDS011;8912;52.336;17.172;2022-08-19T09:08:33;12.68;;;10.75;;
17586;SDS011;8912;52.336;17.172;2022-08-19T09:11:10;11.52;;;10.43;;
17586;SDS011;8912;52.336;17.172;2022-08-19T09:14:06;17.30;;;10.32;;
17586;SDS011;8912;52.336;17.172;2022-08-19T09:16:59;11.13;;;10.10;;
17586;SDS011;8912;52.336;17.172;2022-08-19T09:19:31;17.25;;;10.95;;
17586;SDS011;8912;52.336;17.172;2022-08-19T09:22:00;11.90;;;10.65;;
17586;SDS011;8912;52.336;17.172;2022-08-19T09:24:29;14.43;;;9.85;;
17586;SDS011;8912;52.336;17.172;2022-08-19T09:26:58;11.63;;;10.07;;
17586;SDS011;8912;52.336;17.172;2022-08-19T09:29:44;13.82;;;10.70;;
17586;SDS011;8912;52.336;17.172;2022-08-19T09:32:15;21.17;;;11.65;;
17586;SDS011;8912;52.336;17.172;2022-08-19T09:34:54;13.57;;;9.55;;
17586;SDS011;8912;52.336;17.172;2022-08-19T09:37:24;14.10;;;10.32;;
17586;SDS011;8912;52.336;17.172;2022-08-19T09:39:54;12.63;;;10.00;;
17586;SDS011;8912;52.336;17.172;2022-08-19T09:42:23;12.52;;;10.27;;
17586;SDS011;8912;52.336;17.172;2022-08-19T09:44:55;10.40;;;9.48;;
17586;SDS011;8912;52.336;17.172;2022-08-19T09:47:26;15.65;;;9.77;;
17586;SDS011;8912;52.336;17.172;2022-08-19T09:49:59;13.23;;;10.95;;
17586;SDS011;8912;52.336;17.172;2022-08-19T09:52:27;11.77;;;10.75;;
17586;SDS011;8912;52.336;17.172;2022-08-19T09:54:58;12.50;;;10.55;;
17586;SDS011;8912;52.336;17.172;2022-08-19T09:57:33;17.75;;;9.75;;
17586;SDS011;8912;52.336;17.172;2022-08-19T10:00:03;23.27;;;10.63;;
17586;SDS011;8912;52.336;17.172;2022-08-19T10:02:34;19.52;;;9.80;;
17586;SDS011;8912;52.336;17.172;2022-08-19T10:05:05;15.48;;;9.50;;
17586;SDS011;8912;52.336;17.172;2022-08-19T10:07:52;11.38;;;9.27;;
17586;SDS011;8912;52.336;17.172;2022-08-19T10:10:22;9.77;;;8.82;;
17586;SDS011;8912;52.336;17.172;2022-08-19T10:12:52;16.52;;;8.63;;
17586;SDS011;8912;52.336;17.172;2022-08-19T10:15:21;23.15;;;9.77;;
17586;SDS011;8912;52.336;17.172;2022-08-19T10:17:55;14.07;;;9.10;;
17586;SDS011;8912;52.336;17.172;2022-08-19T10:20:28;16.20;;;9.15;;
17586;SDS011;8912;52.336;17.172;2022-08-19T10:22:57;17.38;;;8.93;;
17586;SDS011;8912;52.336;17.172;2022-08-19T10:25:27;34.05;;;10.70;;
17586;SDS011;8912;52.336;17.172;2022-08-19T10:27:56;10.13;;;8.10;;
17586;SDS011;8912;52.336;17.172;2022-08-19T10:30:25;10.15;;;7.78;;
17586;SDS011;8912;52.336;17.172;2022-08-19T10:32:54;11.68;;;8.15;;
17586;SDS011;8912;52.336;17.172;2022-08-19T10:35:23;15.98;;;7.65;;
17586;SDS011;8912;52.336;17.172;2022-08-19T10:37:55;8.07;;;7.07;;
17586;SDS011;8912;52.336;17.172;2022-08-19T10:40:28;20.38;;;9.60;;
17586;SDS011;8912;52.336;17.172;2022-08-19T10:42:57;11.43;;;7.07;;
17586;SDS011;8912;52.336;17.172;2022-08-19T10:45:26;11.90;;;7.38;;
17586;SDS011;8912;52.336;17.172;2022-08-19T10:47:55;8.73;;;6.97;;
17586;SDS011;8912;52.336;17.172;2022-08-19T10:50:24;13.93;;;8.18;;
17586;SDS011;8912;52.336;17.172;2022-08-19T10:53:12;11.70;;;7.30;;
17586;SDS011;8912;52.336;17.172;2022-08-19T10:55:41;11.40;;;6.70;;
17586;SDS011;8912;52.336;17.172;2022-08-19T10:58:27;14.30;;;7.90;;
17586;SDS011;8912;52.336;17.172;2022-08-19T11:00:56;18.35;;;8.40;;
17586;SDS011;8912;52.336;17.172;2022-08-19T11:03:26;11.27;;;7.28;;
17586;SDS011;8912;52.336;17.172;2022-08-19T11:05:57;10.75;;;7.22;;
17586;SDS011;8912;52.336;17.172;2022-08-19T11:08:28;9.00;;;7.25;;
17586;SDS011;8912;52.336;17.172;2022-08-19T11:10:58;10.85;;;6.60;;
17586;SDS011;8912;52.336;17.172;2022-08-19T11:13:30;10.77;;;6.70;;
17586;SDS011;8912;52.336;17.172;2022-08-19T11:16:02;8.98;;;6.38;;
17586;SDS011;8912;52.336;17.172;2022-08-19T11:18:35;12.85;;;6.85;;
17586;SDS011;8912;52.336;17.172;2022-08-19T11:21:06;9.82;;;7.25;;
17586;SDS011;8912;52.336;17.172;2022-08-19T11:23:39;8.20;;;7.40;;
17586;SDS011;8912;52.336;17.172;2022-08-19T11:26:08;6.82;;;5.68;;
17586;SDS011;8912;52.336;17.172;2022-08-19T11:28:37;7.35;;;5.60;;
17586;SDS011;8912;52.336;17.172;2022-08-19T11:31:09;8.50;;;6.55;;
17586;SDS011;8912;52.336;17.172;2022-08-19T11:33:38;7.57;;;6.63;;
17586;SDS011;8912;52.336;17.172;2022-08-19T11:36:13;8.10;;;6.72;;
17586;SDS011;8912;52.336;17.172;2022-08-19T11:38:44;8.10;;;6.90;;
17586;SDS011;8912;52.336;17.172;2022-08-19T11:41:15;9.20;;;6.78;;
17586;SDS011;8912;52.336;17.172;2022-08-19T11:43:46;8.68;;;6.38;;
17586;SDS011;8912;52.336;17.172;2022-08-19T11:46:15;7.72;;;6.13;;
17586;SDS011;8912;52.336;17.172;2022-08-19T11:48:45;12.30;;;6.80;;
17586;SDS011;8912;52.336;17.172;2022-08-19T11:51:15;7.35;;;6.20;;
17586;SDS011;8912;52.336;17.172;2022-08-19T11:53:48;16.15;;;6.60;;
17586;SDS011;8912;52.336;17.172;2022-08-19T11:56:17;20.02;;;7.72;;
17586;SDS011;8912;52.336;17.172;2022-08-19T11:58:46;9.77;;;6.13;;
17586;SDS011;8912;52.336;17.172;2022-08-19T12:01:16;11.25;;;5.97;;
17586;SDS011;8912;52.336;17.172;2022-08-19T12:03:47;9.23;;;6.00;;
17586;SDS011;8912;52.336;17.172;2022-08-19T12:06:18;7.72;;;5.50;;
17586;SDS011;8912;52.336;17.172;2022-08-19T12:08:52;10.85;;;5.88;;
17586;SDS011;8912;52.336;17.172;2022-08-19T12:11:22;9.77;;;5.55;;
17586;SDS011;8912;52.336;17.172;2022-08-19T12:13:51;8.15;;;5.10;;
17586;SDS011;8912;52.336;17.172;2022-08-19T12:16:21;6.70;;;5.10;;
17586;SDS011;8912;52.336;17.172;2022-08-19T12:18:52;9.30;;;6.00;;
17586;SDS011;8912;52.336;17.172;2022-08-19T12:21:24;24.50;;;7.40;;
17586;SDS011;8912;52.336;17.172;2022-08-19T12:23:58;19.42;;;5.53;;
17586;SDS011;8912;52.336;17.172;2022-08-19T12:26:28;31.85;;;7.68;;
17586;SDS011;8912;52.336;17.172;2022-08-19T12:28:58;6.88;;;5.03;;
17586;SDS011;8912;52.336;17.172;2022-08-19T12:31:27;8.15;;;5.45;;
17586;SDS011;8912;52.336;17.172;2022-08-19T12:33:57;7.00;;;5.38;;
17586;SDS011;8912;52.336;17.172;2022-08-19T12:36:28;8.57;;;4.85;;
17586;SDS011;8912;52.336;17.172;2022-08-19T12:39:00;9.77;;;5.22;;
17586;SDS011;8912;52.336;17.172;2022-08-19T12:41:29;9.40;;;6.22;;
17586;SDS011;8912;52.336;17.172;2022-08-19T12:43:58;10.50;;;5.63;;
17586;SDS011;8912;52.336;17.172;2022-08-19T12:46:27;7.20;;;5.50;;
17586;SDS011;8912;52.336;17.172;2022-08-19T12:48:57;8.05;;;5.57;;
17586;SDS011;8912;52.336;17.172;2022-08-19T12:51:30;7.85;;;5.57;;
17586;SDS011;8912;52.336;17.172;2022-08-19T12:54:02;7.22;;;5.45;;
17586;SDS011;8912;52.336;17.172;2022-08-19T12:56:31;7.05;;;5.47;;
17586;SDS011;8912;52.336;17.172;2022-08-19T12:59:01;9.27;;;5.78;;
17586;SDS011;8912;52.336;17.172;2022-08-19T13:01:30;8.65;;;5.45;;
17586;SDS011;8912;52.336;17.172;2022-08-19T13:03:59;8.32;;;6.03;;
17586;SDS011;8912;52.336;17.172;2022-08-19T13:06:28;9.48;;;6.15;;
17586;SDS011;8912;52.336;17.172;2022-08-19T13:08:57;7.15;;;5.32;;
17586;SDS011;8912;52.336;17.172;2022-08-19T13:11:28;7.90;;;5.82;;
17586;SDS011;8912;52.336;17.172;2022-08-19T13:13:59;112.63;;;13.13;;
17586;SDS011;8912;52.336;17.172;2022-08-19T13:16:30;6.07;;;5.57;;
17586;SDS011;8912;52.336;17.172;2022-08-19T13:18:59;7.32;;;5.68;;
17586;SDS011;8912;52.336;17.172;2022-08-19T13:21:30;11.45;;;5.20;;
17586;SDS011;8912;52.336;17.172;2022-08-19T13:23:59;5.85;;;5.20;;
17586;SDS011;8912;52.336;17.172;2022-08-19T13:26:31;11.70;;;6.00;;
17586;SDS011;8912;52.336;17.172;2022-08-19T13:29:00;14.35;;;6.35;;
17586;SDS011;8912;52.336;17.172;2022-08-19T13:31:43;6.32;;;5.43;;
17586;SDS011;8912;52.336;17.172;2022-08-19T13:34:31;7.47;;;5.70;;
17586;SDS011;8912;52.336;17.172;2022-08-19T13:37:04;11.82;;;5.65;;
17586;SDS011;8912;52.336;17.172;2022-08-19T13:39:33;9.43;;;6.60;;
17586;SDS011;8912;52.336;17.172;2022-08-19T13:42:05;9.95;;;7.38;;
17586;SDS011;8912;52.336;17.172;2022-08-19T13:44:35;9.45;;;7.00;;
17586;SDS011;8912;52.336;17.172;2022-08-19T13:47:04;12.13;;;7.18;;
17586;SDS011;8912;52.336;17.172;2022-08-19T13:49:35;12.98;;;7.90;;
17586;SDS011;8912;52.336;17.172;2022-08-19T13:52:04;10.45;;;7.45;;
17586;SDS011;8912;52.336;17.172;2022-08-19T13:54:33;29.08;;;9.63;;
17586;SDS011;8912;52.336;17.172;2022-08-19T13:57:02;10.13;;;8.50;;
17586;SDS011;8912;52.336;17.172;2022-08-19T13:59:33;10.85;;;8.38;;
17586;SDS011;8912;52.336;17.172;2022-08-19T14:02:02;8.43;;;6.97;;
17586;SDS011;8912;52.336;17.172;2022-08-19T14:04:32;12.23;;;6.82;;
17586;SDS011;8912;52.336;17.172;2022-08-19T14:07:01;8.35;;;7.47;;
17586;SDS011;8912;52.336;17.172;2022-08-19T14:09:30;10.75;;;7.68;;
17586;SDS011;8912;52.336;17.172;2022-08-19T14:11:59;15.27;;;8.20;;
17586;SDS011;8912;52.336;17.172;2022-08-19T14:14:29;10.43;;;8.13;;
17586;SDS011;8912;52.336;17.172;2022-08-19T14:16:59;11.90;;;8.20;;
17586;SDS011;8912;52.336;17.172;2022-08-19T14:19:27;10.20;;;8.88;;
17586;SDS011;8912;52.336;17.172;2022-08-19T14:21:56;11.55;;;9.18;;
17586;SDS011;8912;52.336;17.172;2022-08-19T14:24:25;8.80;;;8.00;;
17586;SDS011;8912;52.336;17.172;2022-08-19T14:26:54;9.10;;;8.05;;
17586;SDS011;8912;52.336;17.172;2022-08-19T14:29:23;13.63;;;9.05;;
17586;SDS011;8912;52.336;17.172;2022-08-19T14:31:53;9.77;;;8.43;;
17586;SDS011;8912;52.336;17.172;2022-08-19T14:34:23;9.73;;;8.25;;
17586;SDS011;8912;52.336;17.172;2022-08-19T14:36:51;12.82;;;8.88;;
17586;SDS011;8912;52.336;17.172;2022-08-19T14:39:21;11.75;;;8.57;;
17586;SDS011;8912;52.336;17.172;2022-08-19T14:41:49;22.95;;;9.65;;
17586;SDS011;8912;52.336;17.172;2022-08-19T14:44:18;10.35;;;9.20;;
17586;SDS011;8912;52.336;17.172;2022-08-19T14:46:48;9.88;;;8.98;;
17586;SDS011;8912;52.336;17.172;2022-08-19T14:49:21;10.55;;;8.20;;
17586;SDS011;8912;52.336;17.172;2022-08-19T14:52:01;9.68;;;8.82;;
17586;SDS011;8912;52.336;17.172;2022-08-19T14:54:31;9.55;;;8.65;;
17586;SDS011;8912;52.336;17.172;2022-08-19T14:57:00;11.32;;;9.07;;